createdAt,value
2018-12-20T00:00:33.741Z,1.90
2018-12-20T00:01:34.265Z,1.60
2018-12-20T00:02:33.692Z,1.50
2018-12-20T00:03:33.654Z,1.30
2018-12-20T00:04:33.736Z,1.90
2018-12-20T00:05:33.739Z,2.00
2018-12-20T00:06:33.626Z,3.60
2018-12-20T00:07:34.141Z,1.50
2018-12-20T00:08:33.607Z,1.50
2018-12-20T00:09:33.661Z,1.60
2018-12-20T00:10:33.862Z,1.80
2018-12-20T00:11:33.595Z,1.70
2018-12-20T00:12:33.816Z,1.60
2018-12-20T00:13:33.664Z,1.70
2018-12-20T00:14:33.553Z,1.60
2018-12-20T00:15:33.550Z,1.80
2018-12-20T00:16:33.601Z,3.00
2018-12-20T00:17:33.677Z,1.60
2018-12-20T00:18:33.573Z,2.50
2018-12-20T00:19:33.512Z,1.50
2018-12-20T00:20:33.588Z,2.60
2018-12-20T00:21:33.609Z,2.00
2018-12-20T00:22:33.741Z,1.20
2018-12-20T00:23:33.543Z,1.50
2018-12-20T00:24:33.540Z,1.40
2018-12-20T00:25:33.526Z,1.20
2018-12-20T00:26:33.666Z,1.90
2018-12-20T00:27:33.920Z,1.80
2018-12-20T00:28:33.391Z,1.60
2018-12-20T00:29:33.374Z,1.40
2018-12-20T00:30:33.448Z,2.10
2018-12-20T00:31:33.352Z,1.40
2018-12-20T00:32:33.470Z,1.40
2018-12-20T00:33:33.487Z,1.60
2018-12-20T00:34:33.377Z,1.30
2018-12-20T00:35:33.792Z,1.60
2018-12-20T00:36:33.368Z,1.40
2018-12-20T00:37:33.335Z,1.50
2018-12-20T00:38:33.281Z,2.00
2018-12-20T00:39:33.550Z,1.80
2018-12-20T00:40:33.288Z,1.50
2018-12-20T00:41:33.536Z,1.40
2018-12-20T00:42:33.277Z,1.70
2018-12-20T00:43:33.218Z,1.10
2018-12-20T00:44:37.409Z,1.70
2018-12-20T00:45:33.344Z,1.20
2018-12-20T00:46:33.197Z,1.60
2018-12-20T00:47:33.291Z,1.80
2018-12-20T00:48:33.172Z,1.70
2018-12-20T00:49:33.235Z,1.80
2018-12-20T00:50:33.176Z,1.40
2018-12-20T00:51:33.133Z,1.10
2018-12-20T00:52:33.126Z,1.80
2018-12-20T00:53:33.181Z,2.30
2018-12-20T00:54:33.219Z,1.60
2018-12-20T00:55:33.575Z,1.60
2018-12-20T00:56:33.279Z,1.60
2018-12-20T00:57:33.464Z,1.20
2018-12-20T00:58:33.285Z,1.70
2018-12-20T00:59:33.471Z,1.40
2018-12-20T01:00:33.084Z,1.30
2018-12-20T01:01:33.043Z,1.30
2018-12-20T01:02:33.262Z,1.10
2018-12-20T01:03:33.149Z,1.30
2018-12-20T01:04:33.102Z,1.30
2018-12-20T01:05:33.266Z,1.50
2018-12-20T01:06:33.194Z,1.40
2018-12-20T01:07:32.979Z,1.50
2018-12-20T01:08:32.953Z,1.50
2018-12-20T01:09:32.953Z,1.60
2018-12-20T01:10:32.922Z,1.60
2018-12-20T01:11:33.043Z,2.10
2018-12-20T01:12:33.197Z,1.30
2018-12-20T01:13:32.906Z,1.60
2018-12-20T01:14:32.875Z,2.00
2018-12-20T01:15:32.981Z,1.90
2018-12-20T01:16:32.924Z,1.10
2018-12-20T01:17:33.136Z,1.30
2018-12-20T01:18:32.888Z,1.30
2018-12-20T01:19:32.994Z,2.00
2018-12-20T01:20:32.850Z,1.40
2018-12-20T01:21:32.972Z,1.20
2018-12-20T01:22:32.842Z,1.40
2018-12-20T01:23:32.969Z,1.30
2018-12-20T01:24:32.823Z,1.10
2018-12-20T01:25:33.285Z,1.80
2018-12-20T01:26:32.841Z,1.50
2018-12-20T01:27:32.776Z,1.40
2018-12-20T01:28:32.734Z,1.40
2018-12-20T01:29:32.763Z,1.50
2018-12-20T01:30:32.741Z,1.10
2018-12-20T01:31:32.807Z,1.50
2018-12-20T01:32:32.685Z,1.40
2018-12-20T01:33:32.775Z,1.30
2018-12-20T01:34:32.658Z,1.30
2018-12-20T01:35:32.674Z,1.50
2018-12-20T01:36:32.810Z,2.00
2018-12-20T01:37:32.683Z,1.30
2018-12-20T01:38:32.617Z,1.20
2018-12-20T01:39:32.755Z,1.30
2018-12-20T01:40:32.776Z,1.40
2018-12-20T01:41:32.900Z,1.40
2018-12-20T01:42:32.578Z,2.00
2018-12-20T01:43:32.846Z,1.60
2018-12-20T01:44:32.572Z,1.30
2018-12-20T01:45:32.567Z,1.40
2018-12-20T01:46:32.642Z,1.50
2018-12-20T01:47:32.646Z,1.60
2018-12-20T01:48:32.519Z,1.40
2018-12-20T01:49:32.756Z,1.10
2018-12-20T01:50:32.582Z,1.80
2018-12-20T01:51:32.634Z,1.30
2018-12-20T01:52:32.469Z,1.10
2018-12-20T01:53:32.487Z,1.50
2018-12-20T01:54:32.446Z,1.90
2018-12-20T01:55:32.520Z,1.10
2018-12-20T01:56:32.458Z,1.60
2018-12-20T01:57:32.580Z,1.50
2018-12-20T01:58:32.591Z,1.30
2018-12-20T01:59:32.498Z,1.40
2018-12-20T02:00:32.415Z,1.20
2018-12-20T02:01:32.450Z,1.30
2018-12-20T02:02:32.363Z,1.10
2018-12-20T02:03:32.370Z,1.60
2018-12-20T02:04:32.564Z,1.40
2018-12-20T02:05:32.459Z,1.70
2018-12-20T02:06:32.512Z,1.90
2018-12-20T02:07:32.325Z,1.70
2018-12-20T02:08:32.489Z,1.40
2018-12-20T02:09:32.523Z,1.30
2018-12-20T02:10:32.274Z,1.70
2018-12-20T02:11:32.369Z,1.40
2018-12-20T02:12:32.440Z,1.20
2018-12-20T02:13:32.372Z,1.30
2018-12-20T02:14:32.310Z,1.70
2018-12-20T02:15:32.483Z,1.50
2018-12-20T02:16:32.232Z,1.40
2018-12-20T02:17:32.743Z,2.50
2018-12-20T02:18:32.390Z,1.60
2018-12-20T02:19:32.228Z,1.30
2018-12-20T02:20:32.195Z,1.20
2018-12-20T02:21:32.241Z,1.80
2018-12-20T02:22:32.174Z,1.70
2018-12-20T02:23:32.157Z,1.70
2018-12-20T02:24:32.155Z,1.50
2018-12-20T02:25:32.414Z,1.40
2018-12-20T02:26:32.181Z,1.40
2018-12-20T02:27:32.128Z,1.90
2018-12-20T02:28:32.075Z,1.20
2018-12-20T02:29:32.076Z,1.50
2018-12-20T02:30:32.261Z,1.40
2018-12-20T02:31:32.420Z,1.10
2018-12-20T02:32:32.184Z,1.70
2018-12-20T02:33:32.014Z,1.60
2018-12-20T02:34:32.153Z,1.80
2018-12-20T02:35:32.059Z,1.30
2018-12-20T02:36:32.131Z,1.70
2018-12-20T02:37:31.991Z,1.40
2018-12-20T02:38:32.141Z,1.70
2018-12-20T02:39:32.167Z,1.60
2018-12-20T02:40:31.952Z,1.60
2018-12-20T02:41:31.946Z,1.40
2018-12-20T02:42:32.943Z,1.50
2018-12-20T02:43:31.931Z,2.00
2018-12-20T02:44:32.035Z,1.30
2018-12-20T02:45:31.907Z,1.50
2018-12-20T02:46:32.025Z,1.50
2018-12-20T02:47:32.134Z,1.70
2018-12-20T02:48:31.866Z,1.50
2018-12-20T02:49:31.950Z,1.20
2018-12-20T02:50:31.897Z,1.50
2018-12-20T02:51:31.840Z,1.70
2018-12-20T02:52:31.871Z,1.60
2018-12-20T02:53:31.848Z,1.50
2018-12-20T02:54:31.790Z,1.80
2018-12-20T02:55:31.818Z,1.20
2018-12-20T02:56:31.900Z,1.80
2018-12-20T02:57:31.828Z,1.40
2018-12-20T02:58:32.062Z,1.10
2018-12-20T02:59:31.738Z,1.50
2018-12-20T03:00:31.959Z,1.50
2018-12-20T03:01:31.879Z,1.40
2018-12-20T03:02:31.713Z,1.80
2018-12-20T03:03:31.716Z,1.40
2018-12-20T03:04:31.724Z,1.70
2018-12-20T03:05:31.724Z,1.80
2018-12-20T03:06:31.661Z,1.20
2018-12-20T03:07:31.657Z,1.80
2018-12-20T03:08:31.912Z,1.50
2018-12-20T03:09:31.749Z,2.10
2018-12-20T03:10:31.608Z,1.40
2018-12-20T03:11:31.684Z,1.70
2018-12-20T03:12:31.590Z,2.00
2018-12-20T03:13:31.673Z,1.10
2018-12-20T03:14:31.588Z,1.00
2018-12-20T03:15:31.835Z,1.50
2018-12-20T03:16:31.746Z,1.30
2018-12-20T03:17:31.777Z,1.20
2018-12-20T03:18:31.627Z,1.80
2018-12-20T03:19:31.549Z,1.50
2018-12-20T03:20:31.581Z,1.20
2018-12-20T03:21:31.792Z,1.70
2018-12-20T03:22:31.512Z,1.20
2018-12-20T03:23:31.894Z,1.40
2018-12-20T03:24:31.851Z,1.30
2018-12-20T03:25:31.531Z,1.70
2018-12-20T03:26:31.474Z,1.40
2018-12-20T03:27:31.822Z,1.30
2018-12-20T03:28:31.511Z,1.20
2018-12-20T03:29:31.537Z,1.70
2018-12-20T03:30:31.436Z,1.80
2018-12-20T03:31:31.450Z,1.60
2018-12-20T03:32:31.388Z,1.60
2018-12-20T03:33:31.397Z,1.70
2018-12-20T03:34:31.380Z,1.60
2018-12-20T03:35:31.351Z,1.60
2018-12-20T03:36:31.334Z,1.20
2018-12-20T03:37:31.574Z,1.30
2018-12-20T03:38:31.509Z,1.40
2018-12-20T03:39:31.330Z,1.00
2018-12-20T03:40:31.317Z,1.60
2018-12-20T03:41:31.302Z,1.60
2018-12-20T03:42:31.312Z,1.10
2018-12-20T03:43:31.285Z,1.40
2018-12-20T03:44:31.261Z,1.00
2018-12-20T03:45:31.255Z,1.80
2018-12-20T03:46:31.224Z,1.60
2018-12-20T03:47:31.345Z,1.60
2018-12-20T03:48:31.237Z,1.30
2018-12-20T03:49:31.202Z,1.80
2018-12-20T03:50:31.209Z,1.70
2018-12-20T03:51:31.380Z,1.20
2018-12-20T03:52:31.386Z,1.30
2018-12-20T03:53:31.217Z,1.30
2018-12-20T03:54:31.733Z,1.20
2018-12-20T03:55:31.205Z,1.70
2018-12-20T03:56:31.260Z,1.80
2018-12-20T03:57:31.150Z,1.10
2018-12-20T03:58:31.385Z,1.20
2018-12-20T03:59:31.201Z,1.00
2018-12-20T04:00:31.861Z,1.30
2018-12-20T04:01:31.606Z,1.30
2018-12-20T04:02:31.107Z,1.40
2018-12-20T04:03:31.524Z,1.20
2018-12-20T04:04:31.120Z,1.20
2018-12-20T04:05:31.084Z,1.10
2018-12-20T04:06:31.306Z,1.10
2018-12-20T04:07:31.087Z,1.40
2018-12-20T04:08:31.580Z,1.20
2018-12-20T04:09:31.190Z,1.20
2018-12-20T04:10:31.337Z,1.20
2018-12-20T04:11:31.271Z,1.20
2018-12-20T04:12:34.222Z,1.40
2018-12-20T04:13:31.133Z,1.50
2018-12-20T04:14:30.935Z,1.50
2018-12-20T04:15:37.760Z,1.00
2018-12-20T04:16:30.886Z,1.10
2018-12-20T04:17:31.032Z,1.00
2018-12-20T04:18:30.971Z,1.10
2018-12-20T04:19:31.200Z,1.30
2018-12-20T04:20:30.924Z,1.20
2018-12-20T04:21:31.071Z,1.20
2018-12-20T04:22:30.923Z,0.90
2018-12-20T04:23:30.893Z,1.10
2018-12-20T04:24:31.083Z,1.50
2018-12-20T04:25:30.896Z,1.40
2018-12-20T04:26:30.876Z,1.10
2018-12-20T04:27:31.301Z,1.70
2018-12-20T04:28:30.974Z,1.70
2018-12-20T04:29:31.049Z,1.30
2018-12-20T04:30:31.306Z,1.30
2018-12-20T04:31:30.753Z,1.40
2018-12-20T04:32:30.727Z,1.00
2018-12-20T04:33:30.704Z,1.50
2018-12-20T04:34:30.947Z,1.10
2018-12-20T04:35:30.723Z,1.10
2018-12-20T04:36:30.671Z,1.40
2018-12-20T04:37:30.795Z,1.00
2018-12-20T04:38:30.684Z,0.90
2018-12-20T04:39:30.848Z,1.60
2018-12-20T04:40:30.646Z,1.50
2018-12-20T04:41:30.776Z,1.10
2018-12-20T04:42:30.661Z,1.40
2018-12-20T04:43:30.637Z,1.30
2018-12-20T04:44:30.673Z,1.40
2018-12-20T04:45:30.609Z,1.60
2018-12-20T04:46:30.581Z,1.30
2018-12-20T04:47:30.573Z,1.70
2018-12-20T04:48:30.806Z,1.40
2018-12-20T04:49:30.850Z,1.10
2018-12-20T04:50:30.787Z,1.50
2018-12-20T04:51:30.622Z,1.70
2018-12-20T04:52:30.648Z,1.00
2018-12-20T04:53:30.724Z,1.60
2018-12-20T04:54:30.996Z,0.90
2018-12-20T04:55:30.517Z,1.20
2018-12-20T04:56:30.546Z,1.30
2018-12-20T04:57:30.505Z,1.00
2018-12-20T04:58:30.572Z,1.30
2018-12-20T04:59:30.613Z,1.30
2018-12-20T05:00:30.680Z,1.50
2018-12-20T05:01:30.449Z,0.80
2018-12-20T05:02:30.399Z,0.90
2018-12-20T05:03:30.387Z,1.20
2018-12-20T05:04:30.577Z,1.00
2018-12-20T05:05:30.634Z,1.10
2018-12-20T05:06:30.611Z,1.20
2018-12-20T05:07:30.364Z,1.30
2018-12-20T05:08:30.541Z,1.10
2018-12-20T05:09:30.604Z,1.90
2018-12-20T05:10:30.370Z,1.20
2018-12-20T05:11:30.421Z,1.00
2018-12-20T05:12:30.338Z,1.10
2018-12-20T05:13:30.337Z,1.00
2018-12-20T05:14:30.292Z,0.90
2018-12-20T05:15:30.283Z,1.10
2018-12-20T05:16:30.511Z,1.10
2018-12-20T05:17:30.380Z,1.40
2018-12-20T05:18:30.529Z,1.90
2018-12-20T05:19:30.607Z,1.30
2018-12-20T05:20:30.323Z,1.00
2018-12-20T05:21:30.314Z,1.30
2018-12-20T05:22:30.212Z,1.60
2018-12-20T05:23:30.405Z,1.00
2018-12-20T05:24:30.465Z,1.40
2018-12-20T05:25:30.200Z,1.20
2018-12-20T05:26:30.221Z,1.20
2018-12-20T05:27:30.161Z,1.00
2018-12-20T05:28:30.299Z,1.00
2018-12-20T05:29:30.163Z,0.90
2018-12-20T05:30:30.119Z,0.80
2018-12-20T05:31:30.079Z,1.10
2018-12-20T05:32:30.405Z,1.70
2018-12-20T05:33:30.261Z,1.00
2018-12-20T05:34:30.226Z,1.30
2018-12-20T05:35:30.332Z,1.10
2018-12-20T05:36:30.158Z,1.20
2018-12-20T05:37:30.023Z,1.00
2018-12-20T05:38:30.073Z,1.00
2018-12-20T05:39:29.991Z,1.10
2018-12-20T05:40:29.991Z,1.00
2018-12-20T05:41:30.023Z,1.30
2018-12-20T05:42:30.332Z,1.70
2018-12-20T05:43:30.215Z,1.00
2018-12-20T05:44:29.954Z,1.40
2018-12-20T05:45:30.152Z,0.90
2018-12-20T05:46:29.991Z,1.00
2018-12-20T05:47:29.914Z,1.00
2018-12-20T05:48:29.971Z,1.90
2018-12-20T05:49:29.880Z,0.90
2018-12-20T05:50:29.878Z,1.00
2018-12-20T05:51:29.890Z,1.20
2018-12-20T05:52:29.850Z,1.10
2018-12-20T05:53:30.383Z,1.00
2018-12-20T05:54:29.864Z,1.00
2018-12-20T05:55:29.985Z,1.20
2018-12-20T05:56:29.810Z,1.00
2018-12-20T05:57:29.905Z,1.20
2018-12-20T05:58:30.023Z,1.10
2018-12-20T05:59:29.875Z,1.50
2018-12-20T06:00:29.788Z,1.20
2018-12-20T06:01:30.019Z,0.90
2018-12-20T06:02:29.935Z,1.30
2018-12-20T06:03:29.746Z,0.90
2018-12-20T06:04:29.922Z,0.90
2018-12-20T06:05:29.791Z,0.90
2018-12-20T06:06:29.739Z,1.20
2018-12-20T06:07:29.688Z,1.10
2018-12-20T06:08:29.673Z,1.00
2018-12-20T06:09:29.746Z,1.00
2018-12-20T06:10:30.088Z,1.20
2018-12-20T06:11:29.647Z,0.70
2018-12-20T06:12:29.685Z,1.40
2018-12-20T06:13:29.653Z,0.90
2018-12-20T06:14:29.795Z,0.90
2018-12-20T06:15:29.626Z,0.90
2018-12-20T06:16:29.645Z,1.10
2018-12-20T06:17:29.617Z,0.90
2018-12-20T06:18:29.601Z,4.40
2018-12-20T06:19:29.777Z,1.40
2018-12-20T06:20:29.874Z,0.80
2018-12-20T06:21:29.610Z,1.10
2018-12-20T06:22:29.565Z,0.70
2018-12-20T06:23:29.548Z,15.10
2018-12-20T06:24:29.542Z,1.30
2018-12-20T06:25:29.778Z,2.80
2018-12-20T06:26:29.530Z,2.70
2018-12-20T06:27:29.526Z,2.90
2018-12-20T06:28:29.513Z,1.70
2018-12-20T06:29:29.493Z,2.50
2018-12-20T06:30:29.567Z,1.70
2018-12-20T06:31:29.486Z,3.10
2018-12-20T06:32:29.515Z,2.10
2018-12-20T06:33:33.110Z,2.60
2018-12-20T06:34:32.017Z,3.10
2018-12-20T06:35:29.519Z,2.30
2018-12-20T06:36:29.453Z,2.70
2018-12-20T06:37:29.439Z,2.50
2018-12-20T06:38:29.555Z,2.70
2018-12-20T06:39:29.587Z,2.10
2018-12-20T06:40:29.494Z,4.40
2018-12-20T06:41:30.935Z,2.20
2018-12-20T06:42:29.473Z,2.50
2018-12-20T06:43:29.359Z,2.00
2018-12-20T06:44:29.448Z,2.50
2018-12-20T06:45:29.450Z,3.10
2018-12-20T06:46:31.141Z,3.80
2018-12-20T06:47:30.899Z,2.10
2018-12-20T06:48:30.917Z,4.20
2018-12-20T06:49:31.248Z,3.70
2018-12-20T06:50:29.385Z,3.90
2018-12-20T06:51:31.243Z,2.20
2018-12-20T06:52:31.188Z,3.10
2018-12-20T06:53:32.495Z,3.40
2018-12-20T06:54:32.233Z,2.30
2018-12-20T06:55:37.147Z,4.00
2018-12-20T06:56:31.375Z,2.30
2018-12-20T06:57:31.299Z,2.90
2018-12-20T06:58:30.037Z,3.60
2018-12-20T06:59:31.012Z,5.80
2018-12-20T07:00:31.140Z,3.70
2018-12-20T07:01:32.840Z,3.00
2018-12-20T07:02:30.603Z,4.40
2018-12-20T07:03:31.005Z,3.90
2018-12-20T07:04:30.693Z,3.90
2018-12-20T07:05:29.249Z,2.90
2018-12-20T07:06:29.231Z,4.40
2018-12-20T07:07:29.159Z,3.20
2018-12-20T07:08:31.892Z,3.50
2018-12-20T07:09:29.068Z,2.20
2018-12-20T07:10:29.092Z,3.90
2018-12-20T07:11:29.048Z,4.90
2018-12-20T07:12:29.120Z,2.80
2018-12-20T07:13:29.028Z,4.30
2018-12-20T07:14:29.020Z,6.30
2018-12-20T07:15:29.008Z,4.10
2018-12-20T07:16:29.367Z,3.40
2018-12-20T07:17:28.980Z,3.90
2018-12-20T07:18:28.992Z,3.90
2018-12-20T07:19:29.066Z,5.30
2018-12-20T07:20:28.990Z,2.80
2018-12-20T07:21:28.997Z,3.40
2018-12-20T07:22:29.179Z,4.60
2018-12-20T07:23:29.181Z,4.40
2018-12-20T07:24:28.911Z,3.50
2018-12-20T07:25:28.962Z,4.50
2018-12-20T07:26:28.895Z,3.50
2018-12-20T07:27:28.896Z,6.30
2018-12-20T07:28:29.197Z,6.30
2018-12-20T07:29:28.863Z,6.20
2018-12-20T07:30:28.877Z,5.40
2018-12-20T07:31:28.838Z,6.80
2018-12-20T07:32:28.826Z,4.30
2018-12-20T07:33:28.918Z,8.50
2018-12-20T07:34:28.787Z,3.90
2018-12-20T07:35:28.829Z,8.30
2018-12-20T07:36:29.060Z,4.70
2018-12-20T07:37:28.752Z,7.10
2018-12-20T07:38:28.870Z,4.60
2018-12-20T07:39:28.763Z,3.40
2018-12-20T07:40:28.750Z,4.50
2018-12-20T07:41:28.748Z,7.00
2018-12-20T07:42:28.730Z,4.30
2018-12-20T07:43:29.620Z,5.70
2018-12-20T07:44:28.688Z,8.60
2018-12-20T07:45:28.681Z,4.90
2018-12-20T07:46:28.670Z,6.80
2018-12-20T07:47:28.722Z,8.00
2018-12-20T07:48:32.253Z,6.40
2018-12-20T07:49:28.687Z,4.50
2018-12-20T07:50:29.856Z,6.10
2018-12-20T07:51:28.848Z,4.60
2018-12-20T07:52:28.616Z,3.60
2018-12-20T07:53:28.596Z,4.40
2018-12-20T07:54:28.806Z,6.20
2018-12-20T07:55:28.585Z,7.80
2018-12-20T07:56:28.578Z,6.00
2018-12-20T07:57:28.591Z,6.80
2018-12-20T07:58:28.570Z,7.50
2018-12-20T07:59:28.610Z,4.60
2018-12-20T08:00:28.502Z,4.70
2018-12-20T08:01:28.526Z,6.30
2018-12-20T08:02:28.494Z,11.00
2018-12-20T08:03:28.474Z,5.40
2018-12-20T08:04:28.560Z,7.40
2018-12-20T08:05:28.470Z,3.70
2018-12-20T08:06:28.429Z,6.70
2018-12-20T08:07:28.425Z,7.90
2018-12-20T08:08:28.924Z,4.90
2018-12-20T08:09:28.483Z,5.80
2018-12-20T08:10:28.445Z,6.70
2018-12-20T08:11:29.228Z,6.60
2018-12-20T08:12:28.475Z,7.00
2018-12-20T08:13:28.838Z,6.40
2018-12-20T08:14:28.405Z,5.00
2018-12-20T08:15:28.340Z,4.90
2018-12-20T08:16:28.324Z,9.60
2018-12-20T08:17:28.312Z,4.70
2018-12-20T08:18:28.460Z,6.40
2018-12-20T08:19:36.008Z,9.80
2018-12-20T08:20:28.303Z,7.50
2018-12-20T08:21:28.299Z,5.90
2018-12-20T08:22:28.288Z,5.90
2018-12-20T08:23:28.276Z,6.20
2018-12-20T08:24:28.345Z,5.70
2018-12-20T08:25:28.250Z,7.00
2018-12-20T08:26:28.217Z,6.00
2018-12-20T08:27:28.209Z,8.60
2018-12-20T08:28:28.289Z,5.90
2018-12-20T08:29:28.284Z,5.70
2018-12-20T08:30:28.195Z,7.30
2018-12-20T08:31:28.228Z,6.90
2018-12-20T08:32:28.406Z,6.90
2018-12-20T08:33:28.132Z,6.50
2018-12-20T08:34:31.830Z,7.70
2018-12-20T08:35:28.975Z,7.10
2018-12-20T08:36:28.139Z,5.00
2018-12-20T08:37:28.150Z,5.10
2018-12-20T08:38:28.088Z,6.90
2018-12-20T08:39:28.079Z,4.30
2018-12-20T08:40:30.851Z,8.80
2018-12-20T08:41:28.682Z,6.40
2018-12-20T08:42:28.035Z,7.70
2018-12-20T08:43:28.055Z,5.70
2018-12-20T08:44:27.980Z,4.90
2018-12-20T08:45:28.249Z,6.10
2018-12-20T08:46:28.116Z,5.40
2018-12-20T08:47:30.462Z,3.70
2018-12-20T08:48:29.024Z,4.80
2018-12-20T08:49:27.945Z,6.20
2018-12-20T08:50:28.271Z,7.20
2018-12-20T08:51:27.963Z,5.10
2018-12-20T08:52:28.002Z,6.40
2018-12-20T08:53:30.200Z,4.30
2018-12-20T08:54:28.498Z,6.30
2018-12-20T08:55:28.980Z,8.20
2018-12-20T08:56:29.913Z,5.90
2018-12-20T08:57:28.592Z,5.20
2018-12-20T08:58:28.449Z,7.50
2018-12-20T08:59:30.063Z,5.20
2018-12-20T09:00:28.014Z,5.90
2018-12-20T09:01:27.970Z,5.20
2018-12-20T09:02:27.812Z,6.70
2018-12-20T09:03:27.848Z,9.70
2018-12-20T09:04:27.856Z,8.70
2018-12-20T09:05:27.964Z,6.50
2018-12-20T09:06:28.033Z,7.00
2018-12-20T09:07:28.022Z,7.00
2018-12-20T09:08:27.787Z,6.60
2018-12-20T09:09:27.757Z,8.70
2018-12-20T09:10:27.839Z,7.30
2018-12-20T09:11:27.692Z,6.20
2018-12-20T09:12:27.745Z,5.80
2018-12-20T09:13:28.080Z,7.70
2018-12-20T09:14:27.714Z,9.90
2018-12-20T09:15:27.699Z,6.80
2018-12-20T09:16:27.936Z,8.30
2018-12-20T09:17:27.802Z,8.30
2018-12-20T09:18:27.908Z,7.80
2018-12-20T09:19:27.633Z,9.20
2018-12-20T09:20:32.717Z,6.60
2018-12-20T09:21:27.712Z,10.20
2018-12-20T09:22:27.636Z,6.30
2018-12-20T09:23:27.621Z,10.80
2018-12-20T09:24:27.634Z,6.70
2018-12-20T09:25:27.972Z,7.00
2018-12-20T09:26:27.591Z,6.70
2018-12-20T09:27:27.664Z,5.80
2018-12-20T09:28:28.893Z,5.20
2018-12-20T09:29:27.526Z,7.70
2018-12-20T09:30:30.624Z,8.90
2018-12-20T09:31:27.583Z,7.40
2018-12-20T09:32:27.459Z,10.30
2018-12-20T09:33:27.840Z,8.30
2018-12-20T09:34:27.440Z,6.60
2018-12-20T09:35:29.528Z,6.00
2018-12-20T09:36:27.426Z,4.70
2018-12-20T09:37:27.413Z,5.90
2018-12-20T09:38:27.395Z,8.10
2018-12-20T09:39:27.674Z,6.20
2018-12-20T09:40:27.526Z,9.20
2018-12-20T09:41:27.370Z,6.60
2018-12-20T09:42:27.351Z,9.70
2018-12-20T09:43:27.365Z,13.50
2018-12-20T09:44:27.373Z,7.60
2018-12-20T09:45:27.347Z,7.00
2018-12-20T09:46:27.592Z,7.10
2018-12-20T09:47:27.375Z,7.80
2018-12-20T09:48:27.603Z,5.20
2018-12-20T09:49:27.277Z,8.00
2018-12-20T09:50:27.325Z,5.70
2018-12-20T09:51:27.276Z,7.30
2018-12-20T09:52:27.256Z,7.80
2018-12-20T09:53:27.258Z,7.20
2018-12-20T09:54:27.219Z,7.40
2018-12-20T09:55:27.250Z,5.80
2018-12-20T09:56:27.208Z,8.90
2018-12-20T09:57:27.199Z,10.30
2018-12-20T09:58:27.182Z,10.40
2018-12-20T09:59:27.172Z,7.60
2018-12-20T10:00:27.187Z,5.70
2018-12-20T10:01:27.176Z,6.40
2018-12-20T10:02:27.139Z,6.20
2018-12-20T10:03:27.134Z,10.10
2018-12-20T10:04:27.121Z,6.90
2018-12-20T10:05:27.137Z,6.70
2018-12-20T10:06:27.092Z,5.50
2018-12-20T10:07:27.104Z,9.90
2018-12-20T10:08:29.008Z,4.80
2018-12-20T10:09:27.318Z,6.20
2018-12-20T10:10:27.085Z,5.20
2018-12-20T10:11:27.077Z,7.30
2018-12-20T10:12:27.033Z,3.80
2018-12-20T10:13:27.060Z,5.90
2018-12-20T10:14:27.092Z,5.10
2018-12-20T10:15:27.111Z,5.20
2018-12-20T10:16:27.023Z,5.60
2018-12-20T10:17:27.020Z,6.30
2018-12-20T10:18:27.008Z,5.30
2018-12-20T10:19:27.023Z,4.80
2018-12-20T10:20:27.127Z,4.90
2018-12-20T10:21:27.499Z,6.10
2018-12-20T10:22:27.015Z,2.90
2018-12-20T10:23:27.013Z,7.10
2018-12-20T10:24:27.065Z,5.50
2018-12-20T10:25:27.009Z,9.40
2018-12-20T10:26:26.931Z,5.60
2018-12-20T10:27:31.399Z,7.60
2018-12-20T10:28:26.902Z,5.20
2018-12-20T10:29:26.933Z,6.90
2018-12-20T10:30:26.867Z,6.20
2018-12-20T10:31:26.937Z,5.40
2018-12-20T10:32:26.820Z,7.90
2018-12-20T10:33:27.061Z,4.40
2018-12-20T10:34:26.833Z,6.40
2018-12-20T10:35:27.080Z,4.60
2018-12-20T10:36:26.782Z,6.80
2018-12-20T10:37:26.756Z,6.60
2018-12-20T10:38:26.744Z,7.00
2018-12-20T10:39:26.740Z,8.00
2018-12-20T10:40:27.056Z,10.70
2018-12-20T10:41:26.734Z,8.00
2018-12-20T10:42:26.707Z,6.60
2018-12-20T10:43:26.695Z,7.20
2018-12-20T10:44:26.943Z,6.90
2018-12-20T10:45:27.069Z,10.30
2018-12-20T10:46:26.656Z,7.50
2018-12-20T10:47:29.121Z,8.40
2018-12-20T10:48:26.656Z,10.60
2018-12-20T10:49:26.627Z,6.20
2018-12-20T10:50:26.626Z,5.70
2018-12-20T10:51:27.307Z,5.30
2018-12-20T10:52:26.687Z,6.60
2018-12-20T10:53:26.640Z,7.90
2018-12-20T10:54:26.569Z,5.70
2018-12-20T10:55:26.564Z,9.30
2018-12-20T10:56:26.589Z,4.70
2018-12-20T10:57:26.552Z,7.30
2018-12-20T10:58:26.522Z,7.30
2018-12-20T10:59:26.534Z,8.60
2018-12-20T11:00:26.510Z,5.30
2018-12-20T11:01:26.530Z,7.80
2018-12-20T11:02:28.084Z,7.10
2018-12-20T11:03:26.493Z,7.70
2018-12-20T11:04:26.474Z,7.70
2018-12-20T11:05:26.450Z,5.40
2018-12-20T11:06:26.481Z,5.20
2018-12-20T11:07:26.443Z,7.60
2018-12-20T11:08:26.809Z,6.70
2018-12-20T11:09:26.439Z,6.70
2018-12-20T11:10:26.393Z,6.50
2018-12-20T11:11:26.435Z,7.80
2018-12-20T11:12:26.381Z,6.60
2018-12-20T11:13:26.378Z,6.30
2018-12-20T11:14:26.347Z,6.80
2018-12-20T11:15:26.706Z,6.40
2018-12-20T11:16:26.369Z,6.60
2018-12-20T11:17:26.354Z,5.30
2018-12-20T11:18:26.348Z,5.60
2018-12-20T11:19:26.341Z,5.30
2018-12-20T11:20:26.593Z,7.10
2018-12-20T11:21:26.365Z,5.70
2018-12-20T11:22:26.308Z,6.50
2018-12-20T11:23:26.296Z,8.60
2018-12-20T11:24:26.289Z,5.10
2018-12-20T11:25:26.299Z,5.10
2018-12-20T11:26:26.320Z,6.20
2018-12-20T11:27:26.581Z,8.70
2018-12-20T11:28:26.206Z,8.40
2018-12-20T11:29:26.246Z,9.90
2018-12-20T11:30:26.209Z,8.00
2018-12-20T11:31:26.218Z,7.50
2018-12-20T11:32:26.161Z,8.20
2018-12-20T11:33:26.167Z,9.60
2018-12-20T11:34:26.154Z,7.50
2018-12-20T11:35:27.124Z,5.20
2018-12-20T11:36:26.195Z,11.30
2018-12-20T11:37:26.115Z,9.00
2018-12-20T11:38:26.338Z,8.20
2018-12-20T11:39:26.104Z,7.60
2018-12-20T11:40:26.143Z,5.60
2018-12-20T11:41:26.112Z,5.10
2018-12-20T11:42:26.320Z,11.00
2018-12-20T11:43:26.050Z,7.30
2018-12-20T11:44:26.587Z,9.00
2018-12-20T11:45:26.023Z,9.10
2018-12-20T11:46:26.047Z,12.80
2018-12-20T11:47:26.009Z,7.80
2018-12-20T11:48:25.984Z,13.90
2018-12-20T11:49:25.976Z,9.20
2018-12-20T11:50:25.981Z,6.90
2018-12-20T11:51:26.200Z,9.10
2018-12-20T11:52:27.003Z,7.10
2018-12-20T11:53:26.032Z,8.10
2018-12-20T11:54:25.926Z,7.90
2018-12-20T11:55:25.988Z,6.00
2018-12-20T11:56:25.949Z,8.00
2018-12-20T11:57:25.899Z,8.60
2018-12-20T11:58:25.928Z,9.50
2018-12-20T11:59:26.118Z,7.80
2018-12-20T12:00:25.862Z,7.30
2018-12-20T12:01:25.875Z,9.70
2018-12-20T12:02:25.866Z,8.60
2018-12-20T12:03:26.079Z,6.10
2018-12-20T12:04:25.820Z,7.40
2018-12-20T12:05:26.066Z,8.10
2018-12-20T12:06:25.805Z,6.30
2018-12-20T12:07:26.072Z,8.10
2018-12-20T12:08:25.763Z,8.20
2018-12-20T12:09:25.760Z,7.10
2018-12-20T12:10:25.854Z,8.00
2018-12-20T12:11:25.769Z,9.40
2018-12-20T12:12:25.765Z,6.40
2018-12-20T12:13:25.744Z,7.80
2018-12-20T12:14:25.817Z,7.90
2018-12-20T12:15:26.582Z,9.30
2018-12-20T12:16:25.955Z,7.70
2018-12-20T12:17:25.786Z,7.40
2018-12-20T12:18:26.990Z,10.30
2018-12-20T12:19:25.738Z,7.40
2018-12-20T12:20:26.700Z,13.90
2018-12-20T12:21:25.670Z,10.00
2018-12-20T12:22:26.195Z,10.10
2018-12-20T12:23:25.646Z,10.30
2018-12-20T12:24:25.643Z,9.10
2018-12-20T12:25:25.677Z,12.10
2018-12-20T12:26:25.614Z,8.70
2018-12-20T12:27:25.664Z,10.30
2018-12-20T12:28:25.609Z,12.80
2018-12-20T12:29:25.537Z,11.50
2018-12-20T12:30:25.537Z,11.00
2018-12-20T12:31:25.524Z,14.10
2018-12-20T12:32:25.804Z,12.10
2018-12-20T12:33:25.511Z,9.50
2018-12-20T12:34:25.506Z,13.30
2018-12-20T12:35:25.473Z,8.90
2018-12-20T12:36:25.467Z,12.60
2018-12-20T12:37:25.516Z,10.30
2018-12-20T12:38:25.445Z,9.70
2018-12-20T12:39:25.472Z,9.60
2018-12-20T12:40:27.353Z,9.20
2018-12-20T12:41:25.454Z,12.00
2018-12-20T12:42:25.434Z,10.60
2018-12-20T12:43:25.402Z,7.20
2018-12-20T12:44:25.398Z,7.10
2018-12-20T12:45:30.915Z,6.10
2018-12-20T12:46:25.370Z,10.00
2018-12-20T12:47:25.383Z,6.10
2018-12-20T12:48:25.344Z,6.40
2018-12-20T12:49:25.335Z,6.70
2018-12-20T12:50:25.569Z,6.00
2018-12-20T12:51:25.317Z,6.50
2018-12-20T12:52:25.329Z,10.30
2018-12-20T12:53:25.288Z,6.90
2018-12-20T12:54:25.270Z,8.80
2018-12-20T12:55:25.316Z,5.60
2018-12-20T12:56:25.257Z,8.20
2018-12-20T12:57:25.528Z,5.70
2018-12-20T12:58:25.329Z,7.10
2018-12-20T12:59:25.500Z,6.30
2018-12-20T13:00:25.208Z,6.90
2018-12-20T13:01:25.243Z,7.60
2018-12-20T13:02:25.262Z,9.20
2018-12-20T13:03:25.185Z,6.30
2018-12-20T13:04:25.190Z,5.70
2018-12-20T13:05:25.168Z,7.00
2018-12-20T13:06:25.145Z,6.10
2018-12-20T13:07:25.195Z,6.10
2018-12-20T13:08:25.172Z,6.70
2018-12-20T13:09:25.153Z,8.20
2018-12-20T13:10:25.241Z,6.90
2018-12-20T13:11:25.095Z,5.20
2018-12-20T13:12:25.089Z,7.40
2018-12-20T13:13:25.085Z,7.70
2018-12-20T13:14:25.078Z,4.60
2018-12-20T13:15:25.056Z,8.00
2018-12-20T13:16:25.060Z,6.10
2018-12-20T13:17:25.085Z,6.80